Time;durP1;ratioP1;P1;durP2;ratioP2;P2;SDS_P1;SDS_P2;PMS_P1;PMS_P2;Temp;Humidity;BMP_temperature;BMP_pressure;BME280_temperature;BME280_humidity;BME280_pressure;Samples;Min_cycle;Max_cycle;Signal;HPM_P1;HPM_P2
2022/07/18 00:01:24;;;;;;;5.30;1.37;;;14.50;99.90;;;;;;7331689;32;20213;-60
2022/07/18 00:05:26;;;;;;;2.85;1.00;;;14.60;99.90;;;;;;7343087;32;20116;-60
2022/07/18 00:09:28;;;;;;;4.78;1.33;;;14.50;99.90;;;;;;7357258;32;20419;-60
2022/07/18 00:13:37;;;;;;;6.05;0.90;;;14.50;99.90;;;;;;7357669;32;20100;-62
2022/07/18 00:17:39;;;;;;;2.92;1.00;;;14.50;99.90;;;;;;7357051;32;20118;-60
2022/07/18 00:21:41;;;;;;;3.53;1.12;;;14.50;99.90;;;;;;7357761;32;20184;-60
2022/07/18 00:25:43;;;;;;;4.90;0.90;;;14.50;99.90;;;;;;7357144;32;20172;-60
2022/07/18 00:29:45;;;;;;;2.37;0.95;;;14.50;99.90;;;;;;7356576;32;20292;-61
2022/07/18 00:33:46;;;;;;;4.45;1.10;;;14.50;99.90;;;;;;7356857;32;20103;-61
2022/07/18 00:37:48;;;;;;;4.47;1.02;;;14.40;99.90;;;;;;7356392;32;20182;-60
2022/07/18 00:41:50;;;;;;;3.15;1.20;;;14.30;99.90;;;;;;7358916;32;20123;-60
2022/07/18 00:45:52;;;;;;;2.65;1.00;;;14.30;99.90;;;;;;7360923;32;20267;-60
2022/07/18 00:49:54;;;;;;;2.20;0.93;;;14.30;99.90;;;;;;7361402;32;20217;-61
2022/07/18 00:53:56;;;;;;;3.25;1.10;;;14.20;99.90;;;;;;7356547;32;20192;-60
2022/07/18 00:57:58;;;;;;;5.32;1.45;;;14.20;99.90;;;;;;7346733;32;20127;-61
2022/07/18 01:02:00;;;;;;;2.17;1.10;;;14.20;99.90;;;;;;7335648;32;20161;-60
2022/07/18 01:06:02;;;;;;;5.35;1.20;;;14.10;99.90;;;;;;7349385;32;20198;-61
2022/07/18 01:10:07;;;;;;;4.05;1.10;;;14.10;99.90;;;;;;7360262;32;20100;-60
2022/07/18 01:14:09;;;;;;;3.42;1.23;;;14.00;99.90;;;;;;7360840;32;20099;-60
2022/07/18 01:18:11;;;;;;;5.65;1.20;;;14.00;99.90;;;;;;7360430;32;20201;-60
2022/07/18 01:22:20;;;;;;;3.45;1.00;;;13.90;99.90;;;;;;7361441;32;20108;-60
2022/07/18 01:26:22;;;;;;;5.05;1.00;;;13.90;99.90;;;;;;7360988;32;20412;-61
2022/07/18 01:30:24;;;;;;;3.67;1.10;;;13.90;99.90;;;;;;7359921;32;20103;-60
2022/07/18 01:34:26;;;;;;;2.90;0.90;;;13.90;99.90;;;;;;7360529;32;20339;-59
2022/07/18 01:38:29;;;;;;;6.47;1.20;;;13.90;99.90;;;;;;7359812;32;20107;-60
2022/07/18 01:42:31;;;;;;;5.50;1.40;;;13.80;99.90;;;;;;7360266;32;20125;-60
2022/07/18 01:46:33;;;;;;;3.90;1.50;;;13.80;99.90;;;;;;7359793;32;20178;-61
2022/07/18 01:50:35;;;;;;;2.42;0.98;;;13.60;99.90;;;;;;7358538;32;20571;-60
2022/07/18 01:54:38;;;;;;;3.83;1.00;;;13.50;99.90;;;;;;7349969;32;20182;-60
2022/07/18 01:58:39;;;;;;;3.87;0.98;;;13.40;99.90;;;;;;7351198;32;20121;-60
2022/07/18 02:02:41;;;;;;;3.47;1.08;;;13.30;99.90;;;;;;7359716;32;20623;-60
2022/07/18 02:06:43;;;;;;;4.00;1.30;;;13.20;99.90;;;;;;7359118;32;20467;-62
2022/07/18 02:10:45;;;;;;;3.90;1.17;;;13.20;99.90;;;;;;7358636;32;20191;-60
2022/07/18 02:14:47;;;;;;;3.08;1.08;;;13.00;99.90;;;;;;7359593;32;20244;-60
2022/07/18 02:18:48;;;;;;;2.95;1.05;;;13.00;99.90;;;;;;7357992;32;20496;-60
2022/07/18 02:22:50;;;;;;;3.15;1.10;;;12.90;99.90;;;;;;7359469;32;20099;-60
2022/07/18 02:26:52;;;;;;;3.05;1.00;;;12.80;99.90;;;;;;7359494;32;20172;-60
2022/07/18 02:30:54;;;;;;;3.33;1.00;;;12.70;99.90;;;;;;7357962;32;20171;-60
2022/07/18 02:34:55;;;;;;;4.30;1.08;;;12.70;99.90;;;;;;7359242;32;20126;-60
2022/07/18 02:38:57;;;;;;;3.55;0.95;;;12.60;99.90;;;;;;7352024;32;20217;-60
2022/07/18 02:42:59;;;;;;;3.85;1.35;;;12.60;99.90;;;;;;7358750;32;20123;-61
2022/07/18 02:47:01;;;;;;;4.50;1.15;;;12.50;99.90;;;;;;7358484;32;20902;-60
2022/07/18 02:51:03;;;;;;;3.47;1.02;;;12.50;99.90;;;;;;7358411;32;20135;-61
2022/07/18 02:55:05;;;;;;;2.70;1.20;;;12.40;99.90;;;;;;7346097;32;20212;-61
2022/07/18 02:59:07;;;;;;;5.37;1.20;;;12.30;99.90;;;;;;7353239;32;20446;-61
2022/07/18 03:03:09;;;;;;;5.87;1.25;;;12.30;99.90;;;;;;7358308;32;20179;-60
2022/07/18 03:07:11;;;;;;;2.22;1.05;;;12.20;99.90;;;;;;7358280;32;20152;-61
2022/07/18 03:11:12;;;;;;;3.60;1.10;;;12.20;99.90;;;;;;7358452;32;20107;-61
2022/07/18 03:15:14;;;;;;;2.47;0.98;;;12.10;99.90;;;;;;7358838;32;20133;-61
2022/07/18 03:19:16;;;;;;;4.05;1.17;;;12.10;99.90;;;;;;7357333;32;20182;-60
2022/07/18 03:23:17;;;;;;;2.45;1.20;;;12.00;99.90;;;;;;7358467;32;20178;-62
2022/07/18 03:27:19;;;;;;;4.87;1.30;;;11.90;99.90;;;;;;7358435;32;20137;-61
2022/07/18 03:31:21;;;;;;;4.90;1.65;;;11.90;99.90;;;;;;7357733;32;20129;-61
2022/07/18 03:35:23;;;;;;;2.20;0.90;;;11.90;99.90;;;;;;7358352;32;20741;-61
2022/07/18 03:39:25;;;;;;;2.83;1.10;;;11.90;99.90;;;;;;7357165;32;20183;-61
2022/07/18 03:43:27;;;;;;;3.33;1.10;;;11.90;99.90;;;;;;7358261;32;20178;-61
2022/07/18 03:47:29;;;;;;;1.60;1.00;;;11.90;99.90;;;;;;7358136;32;20548;-61
2022/07/18 03:51:31;;;;;;;4.85;1.10;;;11.80;99.90;;;;;;7358188;32;20198;-61
2022/07/18 03:55:32;;;;;;;2.05;1.23;;;11.80;99.90;;;;;;7358351;32;20476;-62
2022/07/18 03:59:35;;;;;;;4.20;1.40;;;11.80;99.90;;;;;;7352175;32;20781;-61
2022/07/18 04:03:37;;;;;;;5.22;1.02;;;11.80;99.90;;;;;;7356967;32;20156;-63
2022/07/18 04:07:40;;;;;;;2.87;1.10;;;11.90;99.90;;;;;;7356329;32;20492;-61
2022/07/18 04:11:41;;;;;;;4.03;1.42;;;11.90;99.90;;;;;;7357966;32;20115;-61
2022/07/18 04:15:43;;;;;;;4.30;1.30;;;11.80;99.90;;;;;;7358689;32;20123;-61
2022/07/18 04:19:45;;;;;;;2.92;1.10;;;11.90;99.90;;;;;;7361220;32;20262;-61
2022/07/18 04:23:47;;;;;;;5.12;1.30;;;11.90;99.90;;;;;;7362748;32;20125;-61
2022/07/18 04:27:49;;;;;;;3.60;1.17;;;11.90;99.90;;;;;;7361800;32;20502;-61
2022/07/18 04:31:52;;;;;;;2.47;1.10;;;12.00;99.90;;;;;;7362440;32;20099;-60
2022/07/18 04:35:53;;;;;;;2.80;1.00;;;12.10;99.90;;;;;;7361460;32;20108;-60
2022/07/18 04:39:55;;;;;;;4.15;1.00;;;12.30;99.90;;;;;;7360375;32;20210;-60
2022/07/18 04:43:57;;;;;;;2.17;1.05;;;12.40;99.90;;;;;;7361686;32;20134;-62
2022/07/18 04:47:59;;;;;;;2.15;1.17;;;12.70;99.90;;;;;;7360858;32;20103;-66
2022/07/18 04:52:01;;;;;;;4.50;1.48;;;12.90;99.90;;;;;;7361570;32;20700;-64
2022/07/18 04:56:03;;;;;;;3.78;1.20;;;13.00;99.90;;;;;;7343507;32;20165;-65
2022/07/18 05:00:09;;;;;;;4.30;1.55;;;13.30;99.90;;;;;;7360804;32;20158;-64
2022/07/18 05:04:10;;;;;;;3.05;1.10;;;13.70;99.90;;;;;;7361504;32;20522;-64
2022/07/18 05:08:13;;;;;;;2.37;1.33;;;14.40;99.90;;;;;;7360227;32;20103;-65
2022/07/18 05:12:15;;;;;;;3.62;1.20;;;15.00;99.90;;;;;;7361215;32;20190;-64
2022/07/18 05:16:17;;;;;;;2.55;1.10;;;15.70;99.90;;;;;;7361053;32;20103;-65
2022/07/18 05:20:20;;;;;;;2.28;1.15;;;16.30;99.90;;;;;;7359593;32;20187;-66
2022/07/18 05:24:22;;;;;;;2.30;1.00;;;16.90;99.90;;;;;;7360845;32;20190;-65
2022/07/18 05:28:24;;;;;;;3.28;1.10;;;17.50;99.90;;;;;;7359873;32;20103;-65
2022/07/18 05:32:26;;;;;;;2.42;1.02;;;18.00;99.90;;;;;;7360785;32;20251;-67
2022/07/18 05:36:28;;;;;;;3.72;1.20;;;18.50;99.90;;;;;;7360782;32;20102;-65
2022/07/18 05:40:30;;;;;;;3.03;1.10;;;18.80;99.90;;;;;;7359303;32;20472;-64
2022/07/18 05:44:33;;;;;;;1.90;1.10;;;19.10;99.90;;;;;;7359927;32;20237;-65
2022/07/18 05:48:34;;;;;;;3.17;1.10;;;19.50;99.90;;;;;;7359448;32;20118;-65
2022/07/18 05:52:36;;;;;;;4.57;1.23;;;19.90;99.90;;;;;;7360224;32;20865;-65
2022/07/18 05:56:38;;;;;;;3.67;1.08;;;20.10;99.90;;;;;;7354464;32;20104;-66
2022/07/18 06:00:40;;;;;;;3.55;0.90;;;20.30;99.90;;;;;;7356324;32;20160;-65
2022/07/18 06:04:42;;;;;;;2.78;0.93;;;20.40;99.90;;;;;;7360217;32;20108;-65
2022/07/18 06:09:04;;;;;;;3.08;0.70;;;20.70;99.90;;;;;;7358291;32;20129;-65
2022/07/18 06:13:06;;;;;;;2.28;0.80;;;21.00;99.90;;;;;;7359679;32;20186;-65
2022/07/18 06:17:08;;;;;;;3.40;0.80;;;21.20;99.90;;;;;;7359253;32;20127;-64
2022/07/18 06:21:10;;;;;;;2.53;0.70;;;21.70;99.90;;;;;;7358141;32;20283;-65
2022/07/18 06:25:12;;;;;;;3.28;0.82;;;22.20;99.90;;;;;;7359213;32;20500;-65
2022/07/18 06:29:14;;;;;;;4.35;1.00;;;22.90;99.90;;;;;;7357896;32;20095;-65
2022/07/18 06:33:15;;;;;;;4.37;1.10;;;23.70;96.20;;;;;;7359205;32;20163;-61
2022/07/18 06:37:17;;;;;;;7.25;0.82;;;24.40;94.90;;;;;;7358766;32;20167;-62
2022/07/18 06:41:19;;;;;;;3.80;1.02;;;25.00;94.00;;;;;;7357431;32;20784;-61
2022/07/18 06:45:21;;;;;;;4.43;0.85;;;25.60;87.60;;;;;;7358056;32;20120;-61
2022/07/18 06:49:25;;;;;;;3.45;0.90;;;26.60;91.20;;;;;;7357624;32;20095;-61
2022/07/18 06:53:26;;;;;;;3.97;0.80;;;27.20;87.70;;;;;;7355977;32;20182;-60
2022/07/18 06:57:28;;;;;;;2.30;1.00;;;27.60;81.60;;;;;;7345420;32;20199;-63
2022/07/18 07:01:30;;;;;;;2.55;0.65;;;27.60;76.20;;;;;;7356935;32;20141;-60
2022/07/18 07:05:32;;;;;;;2.80;0.80;;;28.00;73.30;;;;;;7358549;32;20112;-61
2022/07/18 07:09:34;;;;;;;4.47;1.00;;;27.80;65.10;;;;;;7357709;32;20182;-62
2022/07/18 07:13:36;;;;;;;2.17;0.95;;;27.80;68.30;;;;;;7358421;32;20186;-61
2022/07/18 07:17:37;;;;;;;4.43;0.73;;;27.80;65.50;;;;;;7357192;32;20096;-62
2022/07/18 07:21:39;;;;;;;2.40;0.73;;;27.70;63.20;;;;;;7357959;32;20107;-61
2022/07/18 07:25:41;;;;;;;2.37;0.68;;;27.60;60.70;;;;;;7358313;32;20210;-61
2022/07/18 07:29:43;;;;;;;3.90;0.85;;;27.20;66.20;;;;;;7357060;32;20163;-61
2022/07/18 07:33:45;;;;;;;2.30;0.88;;;26.90;64.70;;;;;;7357319;32;20623;-61
2022/07/18 07:37:53;;;;;;;4.35;1.00;;;26.60;66.20;;;;;;7357645;32;20111;-61
2022/07/18 07:41:54;;;;;;;5.18;1.00;;;26.80;65.00;;;;;;7357704;32;20118;-61
2022/07/18 07:46:03;;;;;;;5.57;0.70;;;26.70;67.60;;;;;;7357834;32;20224;-62
2022/07/18 07:50:07;;;;;;;4.05;0.95;;;26.30;71.30;;;;;;7356780;32;20142;-61
2022/07/18 07:54:08;;;;;;;3.05;0.80;;;25.90;69.60;;;;;;7362342;32;20182;-61
2022/07/18 07:58:11;;;;;;;7.18;1.00;;;25.50;70.00;;;;;;7347284;32;20104;-61
2022/07/18 08:02:14;;;;;;;3.30;0.85;;;25.20;71.00;;;;;;7336779;32;20187;-61
2022/07/18 08:06:16;;;;;;;3.92;0.95;;;25.10;73.80;;;;;;7339573;32;20100;-60
2022/07/18 08:10:18;;;;;;;3.22;0.93;;;25.20;69.20;;;;;;7361909;32;20135;-61
2022/07/18 08:14:20;;;;;;;3.45;1.10;;;25.10;74.00;;;;;;7362679;32;20137;-61
2022/07/18 08:18:22;;;;;;;5.97;1.02;;;25.30;73.80;;;;;;7361467;32;20127;-61
2022/07/18 08:22:23;;;;;;;4.47;0.90;;;25.60;72.00;;;;;;7362064;32;20111;-61
2022/07/18 08:26:25;;;;;;;4.20;1.20;;;26.30;73.10;;;;;;7362509;32;20480;-60
2022/07/18 08:30:28;;;;;;;3.45;0.90;;;27.10;63.80;;;;;;7360874;32;20269;-61
2022/07/18 08:34:30;;;;;;;5.20;0.80;;;27.50;63.70;;;;;;7362180;32;20543;-61
2022/07/18 08:38:32;;;;;;;6.30;1.02;;;27.90;61.90;;;;;;7361507;32;20108;-61
2022/07/18 08:42:35;;;;;;;1.80;0.75;;;28.50;59.10;;;;;;7361278;32;20119;-61
2022/07/18 08:46:51;;;;;;;6.87;1.40;;;29.20;61.60;;;;;;7360245;32;20126;-61
2022/07/18 08:50:53;;;;;;;4.87;0.98;;;29.90;57.80;;;;;;7359338;32;20178;-62
2022/07/18 08:54:56;;;;;;;4.25;0.90;;;30.50;60.50;;;;;;7359672;32;20556;-63
2022/07/18 08:59:03;;;;;;;3.83;1.05;;;30.50;54.80;;;;;;7358972;32;20115;-61
2022/07/18 09:03:05;;;;;;;3.78;1.00;;;30.50;54.70;;;;;;7359791;32;20532;-61
2022/07/18 09:07:08;;;;;;;5.32;1.05;;;31.00;57.00;;;;;;7359797;32;20178;-61
2022/07/18 09:11:11;;;;;;;6.32;1.10;;;31.50;56.70;;;;;;7359233;32;20181;-61
2022/07/18 09:15:33;;;;;;;3.80;1.10;;;31.70;54.80;;;;;;7334605;32;20104;-61
2022/07/18 09:19:36;;;;;;;4.43;0.98;;;32.00;52.80;;;;;;7333363;32;20135;-61
2022/07/18 09:23:40;;;;;;;3.12;1.10;;;32.30;53.60;;;;;;7333688;32;20424;-62
2022/07/18 09:27:45;;;;;;;5.57;1.00;;;32.90;51.50;;;;;;7333597;32;20134;-62
2022/07/18 09:31:51;;;;;;;5.53;1.00;;;32.70;52.80;;;;;;7359405;32;20478;-61
2022/07/18 09:35:54;;;;;;;;;;;32.70;49.60;;;;;;7360202;32;20407;-61
2022/07/18 09:40:17;;;;;;;3.00;0.93;;;32.90;50.50;;;;;;7358801;32;21135;-61
2022/07/18 09:44:21;;;;;;;5.07;1.10;;;33.10;49.40;;;;;;7359616;32;20256;-61
2022/07/18 09:48:27;;;;;;;4.32;1.20;;;33.30;48.90;;;;;;7360014;32;20121;-61
2022/07/18 09:52:29;;;;;;;3.72;0.98;;;33.30;49.10;;;;;;7360504;32;20632;-61
2022/07/18 09:56:33;;;;;;;2.95;1.30;;;33.20;47.20;;;;;;7359861;32;20201;-61
2022/07/18 10:00:36;;;;;;;4.93;1.00;;;33.30;50.10;;;;;;7359114;32;20100;-61
2022/07/18 10:04:39;;;;;;;5.22;1.08;;;33.70;47.70;;;;;;7360545;32;20289;-61
2022/07/18 10:08:40;;;;;;;2.55;1.15;;;33.90;46.30;;;;;;7359026;32;20179;-62
2022/07/18 10:12:42;;;;;;;4.90;1.10;;;33.50;42.50;;;;;;7360260;32;20117;-62
2022/07/18 10:16:45;;;;;;;5.25;1.40;;;33.40;44.30;;;;;;7358965;32;20608;-61
2022/07/18 10:20:57;;;;;;;3.62;1.20;;;33.80;47.20;;;;;;7359120;32;20160;-61
2022/07/18 10:25:05;;;;;;;3.53;0.98;;;33.50;44.80;;;;;;7359556;32;20103;-61
2022/07/18 10:29:13;;;;;;;3.37;0.93;;;33.80;46.20;;;;;;7359158;32;20164;-61
2022/07/18 10:33:48;;;;;;;4.22;1.20;;;33.90;45.20;;;;;;7359216;32;20106;-61
2022/07/18 10:37:50;;;;;;;7.68;1.08;;;34.10;44.90;;;;;;7359342;32;20187;-62
2022/07/18 10:41:52;;;;;;;2.08;1.00;;;34.00;42.40;;;;;;7359497;32;20533;-61
2022/07/18 10:46:01;;;;;;;3.00;1.10;;;34.00;42.10;;;;;;7358995;32;20466;-61
2022/07/18 10:50:04;;;;;;;2.35;0.93;;;33.30;42.90;;;;;;7357997;32;20118;-62
2022/07/18 10:54:08;;;;;;;6.93;0.85;;;33.20;43.40;;;;;;7359148;32;20183;-61
2022/07/18 10:58:10;;;;;;;5.30;1.20;;;33.00;43.10;;;;;;7342333;32;20183;-62
2022/07/18 11:02:12;;;;;;;4.15;1.23;;;33.00;43.00;;;;;;7333676;32;20092;-61
2022/07/18 11:06:14;;;;;;;2.33;1.15;;;33.60;42.90;;;;;;7353510;32;20464;-61
2022/07/18 11:10:16;;;;;;;4.65;1.17;;;33.30;45.10;;;;;;7357909;32;20250;-61
2022/07/18 11:14:56;;;;;;;4.47;1.05;;;33.50;41.70;;;;;;7358270;32;20264;-61
2022/07/18 11:18:58;;;;;;;5.85;1.40;;;33.40;42.40;;;;;;7357593;32;20301;-61
2022/07/18 11:23:01;;;;;;;6.85;1.50;;;33.40;42.30;;;;;;7358109;32;20572;-61
2022/07/18 11:27:04;;;;;;;5.70;1.20;;;33.00;42.90;;;;;;7358477;32;20119;-61
2022/07/18 11:31:11;;;;;;;3.35;1.37;;;33.10;44.40;;;;;;7355964;32;20114;-61
2022/07/18 11:35:14;;;;;;;6.43;1.20;;;33.30;45.20;;;;;;7357511;32;20226;-62
2022/07/18 11:39:29;;;;;;;6.60;1.30;;;33.10;42.70;;;;;;7334404;32;20166;-61
2022/07/18 11:43:32;;;;;;;3.30;1.08;;;32.90;43.90;;;;;;7357170;32;20126;-61
2022/07/18 11:47:47;;;;;;;5.68;1.10;;;32.80;43.20;;;;;;7357051;32;20167;-61
2022/07/18 11:51:49;;;;;;;3.65;1.00;;;33.10;44.60;;;;;;7357988;32;20119;-61
2022/07/18 11:55:53;;;;;;;3.15;1.15;;;33.30;43.50;;;;;;7340491;32;20104;-61
2022/07/18 11:59:55;;;;;;;2.78;1.20;;;33.40;42.30;;;;;;7357109;32;20107;-60
2022/07/18 12:03:56;;;;;;;3.60;1.17;;;33.10;44.00;;;;;;7358031;32;20132;-61
2022/07/18 12:07:58;;;;;;;3.55;1.17;;;32.80;44.60;;;;;;7357585;32;20210;-61
2022/07/18 12:12:08;;;;;;;6.00;1.27;;;32.30;43.20;;;;;;7356547;32;20161;-61
2022/07/18 12:16:36;;;;;;;3.37;1.37;;;32.00;43.70;;;;;;7354551;32;20548;-60
2022/07/18 12:20:38;;;;;;;2.53;1.10;;;32.20;45.50;;;;;;7356388;32;20230;-61
2022/07/18 12:24:52;;;;;;;5.10;1.25;;;32.10;43.20;;;;;;7357582;32;20100;-60
2022/07/18 12:29:09;;;;;;;6.30;1.00;;;31.70;44.10;;;;;;7356513;32;20567;-61
2022/07/18 12:33:11;;;;;;;3.00;1.15;;;31.60;47.60;;;;;;7357591;32;20104;-60
2022/07/18 12:37:24;;;;;;;5.53;1.20;;;31.50;46.90;;;;;;7358439;32;20488;-61
2022/07/18 12:41:29;;;;;;;2.42;1.23;;;31.10;45.20;;;;;;7361622;32;20164;-61
2022/07/18 12:45:31;;;;;;;5.37;1.45;;;31.00;49.30;;;;;;7361462;32;20100;-61
2022/07/18 12:49:32;;;;;;;2.95;1.00;;;31.30;47.00;;;;;;7361264;32;20140;-61
2022/07/18 12:53:40;;;;;;;4.32;0.95;;;31.80;44.70;;;;;;7361629;32;20099;-61
2022/07/18 12:57:41;;;;;;;5.85;1.33;;;32.40;43.70;;;;;;7348540;32;20165;-60
2022/07/18 13:01:43;;;;;;;4.53;1.08;;;32.60;42.50;;;;;;7335685;32;20360;-61
2022/07/18 13:05:45;;;;;;;3.75;1.25;;;32.80;43.60;;;;;;7344093;32;20174;-60
2022/07/18 13:09:47;;;;;;;4.37;1.30;;;32.60;42.10;;;;;;7337379;32;20107;-61
2022/07/18 13:13:49;;;;;;;5.53;1.17;;;32.60;42.70;;;;;;7350404;32;20570;-60
2022/07/18 13:17:51;;;;;;;5.32;1.60;;;32.50;44.50;;;;;;7334358;32;20161;-61
2022/07/18 13:21:52;;;;;;;5.87;1.25;;;32.90;43.90;;;;;;7334522;32;20116;-61
2022/07/18 13:25:54;;;;;;;3.03;1.30;;;33.00;43.90;;;;;;7351754;32;20153;-62
2022/07/18 13:29:56;;;;;;;4.60;1.33;;;33.20;43.20;;;;;;7359368;32;20176;-61
2022/07/18 13:33:58;;;;;;;4.60;1.50;;;33.30;43.20;;;;;;7360343;32;20104;-61
2022/07/18 13:38:00;;;;;;;7.32;1.40;;;33.60;43.50;;;;;;7359429;32;20168;-61
2022/07/18 13:42:05;;;;;;;6.62;1.48;;;34.20;41.60;;;;;;7360402;32;20110;-61
2022/07/18 13:46:08;;;;;;;5.65;1.37;;;34.20;41.60;;;;;;7360632;32;20500;-61
2022/07/18 13:50:11;;;;;;;6.62;1.10;;;34.90;40.90;;;;;;7358457;32;20100;-61
2022/07/18 13:54:16;;;;;;;4.75;1.52;;;35.40;40.00;;;;;;7359445;32;20183;-61
2022/07/18 13:58:18;;;;;;;6.43;1.58;;;35.30;39.80;;;;;;7343524;32;20587;-62
2022/07/18 14:02:25;;;;;;;3.80;1.33;;;35.20;39.20;;;;;;7334641;32;20555;-61
2022/07/18 14:06:27;;;;;;;5.00;1.50;;;34.50;41.00;;;;;;7341717;32;20189;-61
2022/07/18 14:10:29;;;;;;;3.72;1.37;;;34.80;39.80;;;;;;7358515;32;20194;-61
2022/07/18 14:14:31;;;;;;;7.75;1.40;;;34.10;41.50;;;;;;7359744;32;20121;-61
2022/07/18 14:18:32;;;;;;;5.47;1.17;;;33.70;40.90;;;;;;7359062;32;20163;-61
2022/07/18 14:22:36;;;;;;;5.00;1.10;;;33.60;42.40;;;;;;7358793;32;20126;-61
2022/07/18 14:26:38;;;;;;;3.05;1.08;;;34.00;41.70;;;;;;7358946;32;20480;-61
2022/07/18 14:30:40;;;;;;;6.12;1.40;;;34.20;42.40;;;;;;7358034;32;20141;-61
2022/07/18 14:34:41;;;;;;;6.10;1.40;;;35.40;41.60;;;;;;7359089;32;20099;-61
2022/07/18 14:38:43;;;;;;;5.75;1.20;;;36.10;40.10;;;;;;7358084;32;20585;-61
2022/07/18 14:42:45;;;;;;;5.55;1.50;;;36.90;39.20;;;;;;7358358;32;20099;-61
2022/07/18 14:46:47;;;;;;;4.18;1.20;;;35.40;38.40;;;;;;7359020;32;20104;-62
2022/07/18 14:50:49;;;;;;;5.28;1.40;;;35.20;39.50;;;;;;7357345;32;20537;-61
2022/07/18 14:54:51;;;;;;;6.50;1.33;;;34.20;41.20;;;;;;7346011;32;20104;-62
2022/07/18 14:58:53;;;;;;;5.18;1.20;;;34.10;40.00;;;;;;7350037;32;20115;-62
2022/07/18 15:02:55;;;;;;;5.43;0.90;;;34.50;41.40;;;;;;7356751;32;20138;-61
2022/07/18 15:06:57;;;;;;;6.55;1.37;;;34.50;39.60;;;;;;7356801;32;20132;-61
2022/07/18 15:10:59;;;;;;;6.35;1.10;;;34.60;41.10;;;;;;7356695;32;20222;-62
2022/07/18 15:15:01;;;;;;;5.53;1.30;;;34.60;39.20;;;;;;7358142;32;20692;-61
2022/07/18 15:19:03;;;;;;;5.40;1.10;;;34.50;39.40;;;;;;7356849;32;20148;-61
2022/07/18 15:23:05;;;;;;;7.68;1.20;;;34.30;40.20;;;;;;7357806;32;20148;-61
2022/07/18 15:27:06;;;;;;;4.72;1.30;;;34.30;39.40;;;;;;7358167;32;20130;-61
2022/07/18 15:31:08;;;;;;;4.75;1.00;;;33.60;40.60;;;;;;7357203;32;20559;-61
2022/07/18 15:35:10;;;;;;;7.07;1.12;;;33.60;39.50;;;;;;7358120;32;20104;-62
2022/07/18 15:39:12;;;;;;;6.35;1.25;;;33.40;41.00;;;;;;7357048;32;20142;-61
2022/07/18 15:43:13;;;;;;;4.90;1.20;;;33.00;41.60;;;;;;7356776;32;20165;-61
2022/07/18 15:47:15;;;;;;;4.53;0.93;;;32.90;41.70;;;;;;7357736;32;20219;-61
2022/07/18 15:51:18;;;;;;;3.05;1.00;;;32.90;41.60;;;;;;7357149;32;20100;-62
2022/07/18 15:55:20;;;;;;;7.85;1.48;;;32.70;42.10;;;;;;7357032;32;20091;-61
2022/07/18 15:59:27;;;;;;;4.45;1.17;;;32.70;40.70;;;;;;7336673;32;20103;-61
2022/07/18 16:03:29;;;;;;;6.35;1.02;;;32.70;41.90;;;;;;7357952;32;20206;-61
2022/07/18 16:07:31;;;;;;;9.55;0.95;;;32.70;41.60;;;;;;7356850;32;20227;-61
2022/07/18 16:11:35;;;;;;;6.90;1.02;;;32.60;41.80;;;;;;7357250;32;20735;-62
2022/07/18 16:15:36;;;;;;;6.93;1.20;;;32.70;42.90;;;;;;7362364;32;20523;-62
2022/07/18 16:19:38;;;;;;;4.85;0.95;;;32.60;42.10;;;;;;7361680;32;20103;-61
2022/07/18 16:23:42;;;;;;;2.35;1.05;;;32.70;41.10;;;;;;7362167;32;20224;-61
2022/07/18 16:27:43;;;;;;;7.75;1.00;;;32.60;41.60;;;;;;7360835;32;20095;-61
2022/07/18 16:31:45;;;;;;;2.67;0.80;;;32.30;41.60;;;;;;7362312;32;20178;-61
2022/07/18 16:35:47;;;;;;;2.80;1.02;;;32.20;41.90;;;;;;7361331;32;20104;-63
2022/07/18 16:39:49;;;;;;;5.85;1.10;;;32.10;42.80;;;;;;7360223;32;20099;-62
2022/07/18 16:43:51;;;;;;;3.05;1.10;;;32.20;42.20;;;;;;7361427;32;20168;-60
2022/07/18 16:47:53;;;;;;;3.65;1.23;;;32.10;43.40;;;;;;7360451;32;20266;-60
2022/07/18 16:52:03;;;;;;;2.67;0.95;;;32.20;43.70;;;;;;7360410;32;20189;-60
2022/07/18 16:56:06;;;;;;;2.95;0.90;;;32.20;42.70;;;;;;7343707;32;20108;-61
2022/07/18 17:00:09;;;;;;;4.05;0.95;;;32.00;44.10;;;;;;7358989;32;20095;-60
2022/07/18 17:04:13;;;;;;;4.68;1.00;;;32.00;43.00;;;;;;7360845;32;20132;-61
2022/07/18 17:08:15;;;;;;;6.15;1.08;;;32.00;42.60;;;;;;7359854;32;20156;-60
2022/07/18 17:12:19;;;;;;;5.70;1.08;;;31.70;42.20;;;;;;7361335;32;20178;-60
2022/07/18 17:16:20;;;;;;;6.12;1.20;;;31.50;42.80;;;;;;7361963;32;20099;-60
2022/07/18 17:20:23;;;;;;;4.97;1.15;;;31.40;43.70;;;;;;7359939;32;20175;-61
2022/07/18 17:24:24;;;;;;;4.68;1.30;;;31.30;44.20;;;;;;7361143;32;20104;-61
2022/07/18 17:28:26;;;;;;;8.65;1.12;;;31.30;44.90;;;;;;7360571;32;20141;-61
2022/07/18 17:32:30;;;;;;;5.43;1.10;;;31.20;45.50;;;;;;7360630;32;20130;-62
2022/07/18 17:36:41;;;;;;;4.03;1.20;;;31.20;45.20;;;;;;7361146;32;20650;-61
2022/07/18 17:40:43;;;;;;;3.25;1.17;;;31.20;45.10;;;;;;7360451;32;20159;-61
2022/07/18 17:44:45;;;;;;;3.00;1.42;;;31.00;44.70;;;;;;7361015;32;20119;-61
2022/07/18 17:48:48;;;;;;;6.80;1.20;;;30.90;46.50;;;;;;7359784;32;20145;-61
2022/07/18 17:52:50;;;;;;;4.70;1.30;;;30.90;45.30;;;;;;7360005;32;20249;-61
2022/07/18 17:56:52;;;;;;;5.07;0.80;;;30.70;45.40;;;;;;7342347;32;20122;-61
2022/07/18 18:00:54;;;;;;;7.53;1.37;;;30.70;45.00;;;;;;7359538;32;20159;-61
2022/07/18 18:04:55;;;;;;;2.53;1.00;;;30.60;49.10;;;;;;7359101;32;20506;-61
2022/07/18 18:08:57;;;;;;;2.92;1.25;;;30.40;52.10;;;;;;7358613;32;20140;-61
2022/07/18 18:12:59;;;;;;;8.63;1.58;;;30.10;55.90;;;;;;7359720;32;20125;-61
2022/07/18 18:17:02;;;;;;;3.65;1.30;;;29.90;58.50;;;;;;7359907;32;20172;-61
2022/07/18 18:21:05;;;;;;;6.15;1.17;;;29.60;60.10;;;;;;7358480;32;20438;-61
2022/07/18 18:25:07;;;;;;;7.03;1.37;;;29.40;63.00;;;;;;7358725;32;20119;-61
2022/07/18 18:29:09;;;;;;;7.30;1.30;;;29.20;64.50;;;;;;7359019;32;20474;-61
2022/07/18 18:33:18;;;;;;;2.83;1.00;;;28.90;67.60;;;;;;7358877;32;20131;-61
2022/07/18 18:37:20;;;;;;;5.93;1.15;;;28.60;69.90;;;;;;7359281;32;20262;-61
2022/07/18 18:41:21;;;;;;;8.80;1.55;;;28.20;72.40;;;;;;7358261;32;20125;-61
2022/07/18 18:45:24;;;;;;;5.05;1.30;;;27.90;75.50;;;;;;7359200;32;20103;-62
2022/07/18 18:49:25;;;;;;;5.72;1.05;;;27.60;78.20;;;;;;7358617;32;20126;-61
2022/07/18 18:53:27;;;;;;;9.75;1.50;;;27.30;82.30;;;;;;7358698;32;20263;-60
2022/07/18 18:57:29;;;;;;;2.72;1.15;;;26.90;86.10;;;;;;7358008;32;20697;-60
2022/07/18 19:01:31;;;;;;;4.53;1.48;;;26.50;90.70;;;;;;7358932;32;20182;-61
2022/07/18 19:05:33;;;;;;;4.18;1.15;;;26.20;93.10;;;;;;7359171;32;20117;-62
2022/07/18 19:09:36;;;;;;;8.15;1.83;;;25.90;96.80;;;;;;7357547;32;20115;-62
2022/07/18 19:13:38;;;;;;;3.50;1.40;;;25.60;98.90;;;;;;7358002;32;20163;-61
2022/07/18 19:17:40;;;;;;;7.12;1.20;;;25.30;99.90;;;;;;7357714;32;20186;-61
2022/07/18 19:21:42;;;;;;;5.68;1.33;;;25.00;99.90;;;;;;7358072;32;20458;-61
2022/07/18 19:25:43;;;;;;;5.37;1.60;;;24.70;99.90;;;;;;7358189;32;20099;-61
2022/07/18 19:29:45;;;;;;;5.18;1.30;;;24.40;99.90;;;;;;7357019;32;20125;-62
2022/07/18 19:33:47;;;;;;;6.55;1.80;;;24.10;99.90;;;;;;7358240;32;20166;-61
2022/07/18 19:37:49;;;;;;;7.85;1.60;;;23.80;99.90;;;;;;7357276;32;20761;-61
2022/07/18 19:41:51;;;;;;;4.68;1.35;;;23.50;99.90;;;;;;7357810;32;20126;-61
2022/07/18 19:45:53;;;;;;;8.13;1.83;;;23.30;99.90;;;;;;7358523;32;20519;-62
2022/07/18 19:49:55;;;;;;;7.85;2.00;;;23.00;99.90;;;;;;7363282;32;20183;-61
2022/07/18 19:53:56;;;;;;;8.40;2.22;;;22.80;99.90;;;;;;7363004;32;20168;-62
2022/07/18 19:57:59;;;;;;;6.20;1.90;;;22.50;99.90;;;;;;7347610;32;20135;-62
2022/07/18 20:02:01;;;;;;;6.75;2.10;;;22.30;99.90;;;;;;7345246;32;20547;-62
2022/07/18 20:06:03;;;;;;;8.27;1.73;;;22.10;99.90;;;;;;7363724;32;20099;-62
2022/07/18 20:10:11;;;;;;;;;;;21.90;99.90;;;;;;7362558;32;20726;-62
2022/07/18 20:14:12;;;;;;;9.57;2.35;;;21.70;99.90;;;;;;7362520;32;20580;-64
2022/07/18 20:18:14;;;;;;;3.72;1.62;;;21.60;99.90;;;;;;7360948;32;20119;-62
2022/07/18 20:22:16;;;;;;;6.25;1.83;;;21.40;99.90;;;;;;7362620;32;20126;-62
2022/07/18 20:26:18;;;;;;;9.57;1.95;;;21.20;99.90;;;;;;7362770;32;20127;-62
2022/07/18 20:30:20;;;;;;;9.38;1.83;;;21.10;99.90;;;;;;7361634;32;20237;-62
2022/07/18 20:34:22;;;;;;;9.48;2.10;;;21.00;99.90;;;;;;7362016;32;20186;-62
2022/07/18 20:38:24;;;;;;;10.32;2.12;;;20.90;99.90;;;;;;7361943;32;20490;-62
2022/07/18 20:42:25;;;;;;;9.75;2.78;;;20.70;99.90;;;;;;7362308;32;20164;-61
2022/07/18 20:46:27;;;;;;;9.27;2.40;;;20.60;99.90;;;;;;7362055;32;20450;-62
2022/07/18 20:50:30;;;;;;;9.73;2.50;;;20.50;99.90;;;;;;7361008;32;20226;-62
2022/07/18 20:54:32;;;;;;;8.05;2.62;;;20.40;99.90;;;;;;7353269;32;20172;-63
2022/07/18 20:58:54;;;;;;;9.88;2.30;;;20.30;99.90;;;;;;7354386;32;20433;-62
2022/07/18 21:02:55;;;;;;;13.85;2.72;;;20.10;99.90;;;;;;7361852;32;20546;-62
2022/07/18 21:06:57;;;;;;;14.95;2.30;;;20.00;99.90;;;;;;7361740;32;20103;-62